createdAt,value
2022-11-12T00:02:12.619Z,2.50
2022-11-12T00:04:59.975Z,0.88
2022-11-12T00:07:46.167Z,1.52
2022-11-12T00:10:33.816Z,1.45
2022-11-12T00:13:47.433Z,1.73
2022-11-12T00:16:34.705Z,1.83
2022-11-12T00:19:20.827Z,1.10
2022-11-12T00:22:07.180Z,1.30
2022-11-12T00:24:53.788Z,0.22
2022-11-12T00:27:40.578Z,1.85
2022-11-12T00:30:27.793Z,1.65
2022-11-12T00:33:14.544Z,1.00
2022-11-12T00:36:00.949Z,1.20
2022-11-12T00:38:47.001Z,2.28
2022-11-12T00:41:33.136Z,0.47
2022-11-12T00:44:19.413Z,1.95
2022-11-12T00:47:26.327Z,1.23
2022-11-12T00:50:12.483Z,1.58
2022-11-12T00:53:00.219Z,1.87
2022-11-12T00:55:46.633Z,1.15
2022-11-12T00:58:35.134Z,0.90
2022-11-12T01:01:21.812Z,1.20
2022-11-12T01:04:08.663Z,2.35
2022-11-12T01:06:55.453Z,1.40
2022-11-12T01:09:41.270Z,1.35
2022-11-12T01:12:27.411Z,2.00
2022-11-12T01:15:13.519Z,1.67
2022-11-12T01:17:59.600Z,0.95
2022-11-12T01:20:46.740Z,1.23
2022-11-12T01:23:38.237Z,0.98
2022-11-12T01:26:25.090Z,1.48
2022-11-12T01:29:12.188Z,1.40
2022-11-12T01:31:58.579Z,0.82
2022-11-12T01:34:45.105Z,1.65
2022-11-12T01:37:33.348Z,1.00
2022-11-12T01:40:21.588Z,1.70
2022-11-12T01:43:14.650Z,2.58
2022-11-12T01:46:04.574Z,1.48
2022-11-12T01:48:54.454Z,1.90
2022-11-12T01:51:45.082Z,0.35
2022-11-12T01:54:31.471Z,1.95
2022-11-12T01:57:20.691Z,0.65
2022-11-12T02:00:11.778Z,1.65
2022-11-12T02:03:03.625Z,1.02
2022-11-12T02:05:53.823Z,1.05
2022-11-12T02:08:42.060Z,1.90
2022-11-12T02:11:27.837Z,1.33
2022-11-12T02:14:14.378Z,1.17
2022-11-12T02:17:01.045Z,2.30
2022-11-12T02:19:47.320Z,1.42
2022-11-12T02:22:34.853Z,2.75
2022-11-12T02:25:23.419Z,2.28
2022-11-12T02:28:10.185Z,1.00
2022-11-12T02:30:55.990Z,0.62
2022-11-12T02:33:42.067Z,2.75
2022-11-12T02:36:29.290Z,1.75
2022-11-12T02:39:16.889Z,1.25
2022-11-12T02:42:03.694Z,2.28
2022-11-12T02:44:50.064Z,0.60
2022-11-12T02:47:37.832Z,0.70
2022-11-12T02:50:23.702Z,2.00
2022-11-12T02:53:10.325Z,2.12
2022-11-12T02:55:58.514Z,1.50
2022-11-12T02:58:44.687Z,1.77
2022-11-12T03:01:31.646Z,1.12
2022-11-12T03:04:18.058Z,1.37
2022-11-12T03:07:04.725Z,3.15
2022-11-12T03:09:51.859Z,2.75
2022-11-12T03:12:38.166Z,1.35
2022-11-12T03:15:24.578Z,2.83
2022-11-12T03:18:12.113Z,1.10
2022-11-12T03:20:58.600Z,1.77
2022-11-12T03:23:45.332Z,1.60
2022-11-12T03:26:35.620Z,1.75
2022-11-12T03:29:22.038Z,2.42
2022-11-12T03:32:08.726Z,2.70
2022-11-12T03:34:55.709Z,1.92
2022-11-12T03:37:44.700Z,1.60
2022-11-12T03:40:34.740Z,2.72
2022-11-12T03:43:22.639Z,3.03
2022-11-12T03:46:08.833Z,2.10
2022-11-12T03:48:55.441Z,1.40
2022-11-12T03:51:41.569Z,1.35
2022-11-12T03:54:27.874Z,1.25
2022-11-12T03:57:14.424Z,2.62
2022-11-12T04:00:00.510Z,1.23
2022-11-12T04:02:46.841Z,3.22
2022-11-12T04:05:52.276Z,1.33
2022-11-12T04:08:39.699Z,1.08
2022-11-12T04:11:25.788Z,1.08
2022-11-12T04:14:11.851Z,1.02
2022-11-12T04:17:16.686Z,2.03
2022-11-12T04:20:21.469Z,1.15
2022-11-12T04:23:07.375Z,1.10
2022-11-12T04:26:11.996Z,1.27
2022-11-12T04:29:18.123Z,2.33
2022-11-12T04:32:04.796Z,1.90
2022-11-12T04:34:51.074Z,1.02
2022-11-12T04:37:47.016Z,0.95
2022-11-12T04:40:52.300Z,0.95
2022-11-12T04:44:20.867Z,0.95
2022-11-12T04:47:07.559Z,0.40
2022-11-12T04:49:54.343Z,2.35
2022-11-12T04:52:40.606Z,1.83
2022-11-12T04:55:30.807Z,1.30
2022-11-12T04:58:18.155Z,1.55
2022-11-12T05:01:05.409Z,1.62
2022-11-12T05:03:51.634Z,2.58
2022-11-12T05:06:53.174Z,3.03
2022-11-12T05:12:28.381Z,0.30
2022-11-12T05:15:15.362Z,1.83
2022-11-12T05:18:02.197Z,0.98
2022-11-12T05:20:52.573Z,0.85
2022-11-12T05:23:40.251Z,2.30
2022-11-12T05:26:28.618Z,1.60
2022-11-12T05:29:18.845Z,2.75
2022-11-12T05:32:07.753Z,2.17
2022-11-12T05:34:54.407Z,1.65
2022-11-12T05:37:40.305Z,2.72
2022-11-12T05:40:26.856Z,1.80
2022-11-12T05:43:13.544Z,1.30
2022-11-12T05:46:01.016Z,1.55
2022-11-12T05:48:48.753Z,1.52
2022-11-12T05:51:36.232Z,0.90
2022-11-12T05:54:25.666Z,2.15
2022-11-12T05:57:12.669Z,0.68
2022-11-12T06:00:07.735Z,0.77
2022-11-12T06:02:43.122Z,2.10
2022-11-12T06:05:33.575Z,1.10
2022-11-12T06:08:20.778Z,0.77
2022-11-12T06:11:12.488Z,1.55
2022-11-12T06:13:58.870Z,1.08
2022-11-12T06:16:47.771Z,2.55
2022-11-12T06:19:37.951Z,1.37
2022-11-12T06:22:24.129Z,2.87
2022-11-12T06:25:10.995Z,1.83
2022-11-12T06:27:59.278Z,1.35
2022-11-12T06:30:49.128Z,1.15
2022-11-12T06:36:32.562Z,2.30
2022-11-12T06:39:21.138Z,3.90
2022-11-12T06:42:09.604Z,1.80
2022-11-12T06:44:56.108Z,1.80
2022-11-12T06:47:43.877Z,3.85
2022-11-12T06:50:31.727Z,1.17
2022-11-12T06:53:19.518Z,3.65
2022-11-12T06:56:11.590Z,2.47
2022-11-12T06:59:06.263Z,3.40
2022-11-12T07:01:56.000Z,1.95
2022-11-12T07:04:44.841Z,2.60
2022-11-12T07:07:34.857Z,1.35
2022-11-12T07:10:23.602Z,2.83
2022-11-12T07:13:14.609Z,2.12
2022-11-12T07:16:04.932Z,1.83
2022-11-12T07:18:56.793Z,2.78
2022-11-12T07:21:45.110Z,2.67
2022-11-12T07:24:33.389Z,2.62
2022-11-12T07:27:22.780Z,1.55
2022-11-12T07:30:14.111Z,2.72
2022-11-12T07:33:01.939Z,2.75
2022-11-12T07:35:49.018Z,4.75
2022-11-12T07:38:44.577Z,2.53
2022-11-12T07:41:32.642Z,2.53
2022-11-12T07:44:21.607Z,4.47
2022-11-12T07:47:09.050Z,3.95
2022-11-12T07:49:56.687Z,3.97
2022-11-12T07:52:49.528Z,5.45
2022-11-12T07:55:38.094Z,2.70
2022-11-12T07:58:39.610Z,4.40
2022-11-12T08:01:26.328Z,4.80
2022-11-12T08:04:22.790Z,4.70
2022-11-12T08:07:12.563Z,3.37
2022-11-12T08:10:08.670Z,1.58
2022-11-12T08:13:01.620Z,3.03
2022-11-12T08:15:52.214Z,3.03
2022-11-12T08:18:42.885Z,3.80
2022-11-12T08:21:35.051Z,3.30
2022-11-12T08:27:22.706Z,2.55
2022-11-12T08:33:07.437Z,3.03
2022-11-12T08:36:06.800Z,4.68
2022-11-12T08:38:55.685Z,2.90
2022-11-12T08:41:42.747Z,1.62
2022-11-12T08:44:30.809Z,3.22
2022-11-12T08:47:18.767Z,2.55
2022-11-12T08:50:06.434Z,4.30
2022-11-12T08:52:54.732Z,2.72
2022-11-12T08:55:41.544Z,2.42
2022-11-12T09:04:30.936Z,1.95
2022-11-12T09:07:48.123Z,2.87
2022-11-12T09:10:44.908Z,4.50
2022-11-12T09:13:18.607Z,2.78
2022-11-12T09:16:08.604Z,1.95
2022-11-12T09:19:07.580Z,2.62
2022-11-12T09:21:58.640Z,1.55
2022-11-12T09:24:40.942Z,3.50
2022-11-12T09:27:29.653Z,3.47
2022-11-12T09:30:16.601Z,3.10
2022-11-12T09:32:59.884Z,2.22
2022-11-12T09:36:47.690Z,3.03
2022-11-12T09:39:46.062Z,3.00
2022-11-12T09:47:40.638Z,2.33
2022-11-12T09:50:34.316Z,4.40
2022-11-12T09:53:44.491Z,3.60
2022-11-12T09:56:28.576Z,2.80
2022-11-12T09:59:13.556Z,4.28
2022-11-12T10:02:19.474Z,2.70
2022-11-12T10:05:36.597Z,3.30
2022-11-12T10:08:46.050Z,2.10
2022-11-12T10:12:04.502Z,4.05
2022-11-12T10:15:21.575Z,4.68
2022-11-12T10:18:43.344Z,2.62
2022-11-12T10:21:50.796Z,1.62
2022-11-12T10:24:43.795Z,3.72
2022-11-12T10:27:40.746Z,3.17
2022-11-12T10:30:28.036Z,3.80
2022-11-12T10:33:24.860Z,4.97
2022-11-12T10:36:30.578Z,4.10
2022-11-12T10:39:34.484Z,2.25
2022-11-12T10:42:25.151Z,2.97
2022-11-12T10:45:24.578Z,4.10
2022-11-12T10:48:35.661Z,3.25
2022-11-12T10:51:28.972Z,3.28
2022-11-12T10:54:55.303Z,2.25
2022-11-12T10:57:44.920Z,3.67
2022-11-12T11:00:34.693Z,4.22
2022-11-12T11:03:24.950Z,3.50
2022-11-12T11:09:15.574Z,2.75
2022-11-12T11:12:04.746Z,2.37
2022-11-12T11:15:14.661Z,3.53
2022-11-12T11:18:02.520Z,2.05
2022-11-12T11:21:00.558Z,4.47
2022-11-12T11:24:04.636Z,3.97
2022-11-12T11:26:57.682Z,1.58
2022-11-12T11:29:59.547Z,3.67
2022-11-12T11:32:55.569Z,1.42
2022-11-12T11:36:15.833Z,2.40
2022-11-12T11:39:31.321Z,2.72
2022-11-12T11:42:44.726Z,2.65
2022-11-12T11:52:06.644Z,3.20
2022-11-12T11:55:22.687Z,4.57
2022-11-12T11:58:21.505Z,2.00
2022-11-12T12:01:20.298Z,4.65
2022-11-12T12:04:14.813Z,2.33
2022-11-12T12:07:28.505Z,2.95
2022-11-12T12:13:29.153Z,2.33
2022-11-12T12:16:25.643Z,2.92
2022-11-12T12:19:45.950Z,2.62
2022-11-12T12:22:40.792Z,2.55
2022-11-12T12:25:37.474Z,3.17
2022-11-12T12:28:22.924Z,2.67
2022-11-12T12:31:18.792Z,2.95
2022-11-12T12:34:40.571Z,3.05
2022-11-12T12:37:52.278Z,3.87
2022-11-12T12:45:40.863Z,2.80
2022-11-12T12:48:41.392Z,3.15
2022-11-12T12:54:39.825Z,2.92
2022-11-12T12:57:45.471Z,2.42
2022-11-12T13:00:40.547Z,3.30
2022-11-12T13:03:46.679Z,4.30
2022-11-12T13:06:50.924Z,3.55
2022-11-12T13:09:41.280Z,3.72
2022-11-12T13:13:04.195Z,3.12
2022-11-12T13:15:50.915Z,3.42
2022-11-12T13:18:40.394Z,2.45
2022-11-12T13:21:26.859Z,2.83
2022-11-12T13:24:14.264Z,2.72
2022-11-12T13:27:07.456Z,2.53
2022-11-12T13:29:55.619Z,3.37
2022-11-12T13:32:59.885Z,3.40
2022-11-12T13:35:48.618Z,4.25
2022-11-12T13:38:43.743Z,3.12
2022-11-12T13:41:58.777Z,2.97
2022-11-12T13:44:56.075Z,2.97
2022-11-12T13:47:44.944Z,2.92
2022-11-12T13:50:21.407Z,2.25
2022-11-12T13:53:10.488Z,3.35
2022-11-12T13:56:07.805Z,1.90
2022-11-12T13:59:20.644Z,2.28
2022-11-12T14:02:29.608Z,1.85
2022-11-12T14:05:19.110Z,1.70
2022-11-12T14:08:42.011Z,2.70
2022-11-12T14:12:06.575Z,2.33
2022-11-12T14:15:05.683Z,1.55
2022-11-12T14:17:50.591Z,1.60
2022-11-12T14:20:41.596Z,1.25
2022-11-12T14:23:30.616Z,2.42
2022-11-12T14:26:39.550Z,1.17
2022-11-12T14:29:31.367Z,2.75
2022-11-12T14:32:25.844Z,2.35
2022-11-12T14:35:32.146Z,1.58
2022-11-12T14:38:27.062Z,2.22
2022-11-12T14:41:20.719Z,1.67
2022-11-12T14:44:17.422Z,2.78
2022-11-12T14:47:05.924Z,1.80
2022-11-12T14:49:55.426Z,3.20
2022-11-12T14:52:49.593Z,1.50
2022-11-12T14:55:40.988Z,1.75
2022-11-12T14:58:30.949Z,1.73
2022-11-12T15:01:55.774Z,1.95
2022-11-12T15:04:50.554Z,3.78
2022-11-12T15:08:04.132Z,3.90
2022-11-12T15:11:30.031Z,3.60
2022-11-12T15:14:23.615Z,3.62
2022-11-12T15:17:27.481Z,3.33
2022-11-12T15:20:19.940Z,1.95
2022-11-12T15:23:16.630Z,2.83
2022-11-12T15:26:11.823Z,4.15
2022-11-12T15:29:25.595Z,5.22
2022-11-12T15:32:15.585Z,3.50
2022-11-12T15:35:07.576Z,6.97
2022-11-12T15:38:07.642Z,7.03
2022-11-12T15:41:01.657Z,3.03
2022-11-12T15:46:42.012Z,2.83
2022-11-12T15:49:30.135Z,3.05
2022-11-12T15:52:18.996Z,2.25
2022-11-12T15:55:22.697Z,3.97
2022-11-12T16:01:08.272Z,2.75
2022-11-12T16:03:55.040Z,2.05
2022-11-12T16:06:45.814Z,2.87
2022-11-12T16:09:43.674Z,2.30
2022-11-12T16:12:33.625Z,1.73
2022-11-12T16:15:29.661Z,3.67
2022-11-12T16:18:20.699Z,3.20
2022-11-12T16:21:20.660Z,2.67
2022-11-12T16:24:12.640Z,2.65
2022-11-12T16:27:02.591Z,3.35
2022-11-12T16:32:44.873Z,2.20
2022-11-12T16:35:39.192Z,2.97
2022-11-12T16:38:27.609Z,3.12
2022-11-12T16:41:14.869Z,3.42
2022-11-12T16:44:05.039Z,3.78
2022-11-12T16:46:40.567Z,3.40
2022-11-12T16:49:38.675Z,3.90
2022-11-12T16:55:00.116Z,2.97
2022-11-12T16:57:53.571Z,4.18
2022-11-12T17:00:50.820Z,4.85
2022-11-12T17:03:42.624Z,2.58
2022-11-12T17:06:39.082Z,2.85
2022-11-12T17:09:27.823Z,2.67
2022-11-12T17:12:09.607Z,4.50
2022-11-12T17:14:59.821Z,2.80
2022-11-12T17:17:58.570Z,3.42
2022-11-12T17:20:51.245Z,3.00
2022-11-12T17:26:19.626Z,2.87
2022-11-12T17:29:08.471Z,3.67
2022-11-12T17:31:55.743Z,2.05
2022-11-12T17:34:57.531Z,2.65
2022-11-12T17:37:51.600Z,4.55
2022-11-12T17:40:39.219Z,4.12
2022-11-12T17:50:37.863Z,2.72
2022-11-12T17:53:31.620Z,4.75
2022-11-12T17:59:02.762Z,5.12
2022-11-12T18:01:49.201Z,3.37
2022-11-12T18:04:36.657Z,3.28
2022-11-12T18:07:22.673Z,4.55
2022-11-12T18:10:14.415Z,3.33
2022-11-12T18:13:02.883Z,2.97
2022-11-12T18:15:49.049Z,4.60
2022-11-12T18:18:35.211Z,6.47
2022-11-12T18:21:21.794Z,4.68
2022-11-12T18:24:13.130Z,6.90
2022-11-12T18:26:59.135Z,5.75
2022-11-12T18:29:46.521Z,3.42
2022-11-12T18:32:32.793Z,5.12
2022-11-12T18:35:19.602Z,3.95
2022-11-12T18:38:05.680Z,7.40
2022-11-12T18:41:03.173Z,4.32
2022-11-12T18:43:49.081Z,5.37
2022-11-12T18:46:35.318Z,6.25
2022-11-12T18:49:21.541Z,3.12
2022-11-12T18:52:07.761Z,4.05
2022-11-12T18:54:53.920Z,3.45
2022-11-12T18:57:40.008Z,4.82
2022-11-12T19:00:26.155Z,8.75
2022-11-12T19:03:12.258Z,6.10
2022-11-12T19:06:02.993Z,3.83
2022-11-12T19:08:51.983Z,4.87
2022-11-12T19:11:40.444Z,4.50
2022-11-12T19:14:28.615Z,4.70
2022-11-12T19:17:34.608Z,5.18
2022-11-12T19:20:40.431Z,5.07
2022-11-12T19:23:29.880Z,6.22
2022-11-12T19:26:18.025Z,5.40
2022-11-12T19:29:04.587Z,5.62
2022-11-12T19:31:51.241Z,7.05
2022-11-12T19:34:57.032Z,7.35
2022-11-12T19:37:43.607Z,5.25
2022-11-12T19:40:29.970Z,8.88
2022-11-12T19:43:16.613Z,5.82
2022-11-12T19:46:08.870Z,6.43
2022-11-12T19:48:55.240Z,5.35
2022-11-12T19:51:42.219Z,5.70
2022-11-12T19:54:29.200Z,5.90
2022-11-12T19:57:15.442Z,5.62
2022-11-12T20:00:21.145Z,5.05
2022-11-12T20:03:07.185Z,6.32
2022-11-12T20:06:06.108Z,5.95
2022-11-12T20:09:08.962Z,5.55
2022-11-12T20:11:55.760Z,10.20
2022-11-12T20:14:41.883Z,6.25
2022-11-12T20:17:28.044Z,5.95
2022-11-12T20:20:14.951Z,5.55
2022-11-12T20:23:01.754Z,7.82
2022-11-12T20:25:51.563Z,5.40
2022-11-12T20:28:38.814Z,3.25
2022-11-12T20:31:25.036Z,6.18
2022-11-12T20:34:12.445Z,6.35
2022-11-12T20:36:58.533Z,8.00
2022-11-12T20:39:44.924Z,8.63
2022-11-12T20:42:30.748Z,8.55
2022-11-12T20:45:16.829Z,7.57
2022-11-12T20:48:03.360Z,5.18
2022-11-12T20:51:16.968Z,7.05
2022-11-12T20:53:59.969Z,5.55
2022-11-12T20:56:49.169Z,9.00
2022-11-12T20:59:41.010Z,5.97
2022-11-12T21:02:27.275Z,6.80
2022-11-12T21:05:13.367Z,5.68
2022-11-12T21:07:59.473Z,4.85
2022-11-12T21:10:49.627Z,5.35
2022-11-12T21:13:36.329Z,5.70
2022-11-12T21:16:22.126Z,6.25
2022-11-12T21:19:08.382Z,7.85
2022-11-12T21:21:54.425Z,7.55
2022-11-12T21:24:40.398Z,6.53
2022-11-12T21:27:26.600Z,8.20
2022-11-12T21:30:12.650Z,7.62
2022-11-12T21:32:59.650Z,6.15
2022-11-12T21:35:52.361Z,7.00
2022-11-12T21:41:26.574Z,5.85
2022-11-12T21:44:12.657Z,7.87
2022-11-12T21:46:58.727Z,7.50
2022-11-12T21:49:44.797Z,11.70
2022-11-12T21:52:30.913Z,7.72
2022-11-12T21:55:17.115Z,4.82
2022-11-12T21:58:03.066Z,5.93
2022-11-12T22:00:49.258Z,8.50
2022-11-12T22:03:35.367Z,7.85
2022-11-12T22:06:24.083Z,7.62
2022-11-12T22:09:09.938Z,7.80
2022-11-12T22:11:56.327Z,9.88
2022-11-12T22:14:44.259Z,10.85
2022-11-12T22:17:33.349Z,7.40
2022-11-12T22:20:19.522Z,5.62
2022-11-12T22:23:05.608Z,6.78
2022-11-12T22:25:52.364Z,5.82
2022-11-12T22:28:38.386Z,7.05
2022-11-12T22:31:29.838Z,4.25
2022-11-12T22:34:16.122Z,5.45
2022-11-12T22:37:02.471Z,4.10
2022-11-12T22:39:48.546Z,6.87
2022-11-12T22:42:35.049Z,6.72
2022-11-12T22:45:21.072Z,3.22
2022-11-12T22:48:07.176Z,5.62
2022-11-12T22:50:58.673Z,5.60
2022-11-12T22:53:44.920Z,5.53
2022-11-12T22:56:34.814Z,5.05
2022-11-12T22:59:22.830Z,8.23
2022-11-12T23:02:09.045Z,6.68
2022-11-12T23:04:55.254Z,6.87
2022-11-12T23:07:41.585Z,6.20
2022-11-12T23:10:28.157Z,5.62
2022-11-12T23:13:14.670Z,5.25
2022-11-12T23:16:02.657Z,3.55
2022-11-12T23:23:12.127Z,5.15
2022-11-12T23:25:54.527Z,4.07
2022-11-12T23:28:36.800Z,5.87
2022-11-12T23:31:25.023Z,4.68
2022-11-12T23:34:07.462Z,4.47
2022-11-12T23:36:49.381Z,3.37
2022-11-12T23:39:31.383Z,5.55
2022-11-12T23:42:13.366Z,2.22
2022-11-12T23:44:55.376Z,3.42
2022-11-12T23:47:37.382Z,2.22
2022-11-12T23:50:21.580Z,4.25
2022-11-12T23:53:03.502Z,4.07
2022-11-12T23:55:45.365Z,4.45
2022-11-12T23:58:27.868Z,5.50
